Huvudsida
METAR-TAF:

METAR-TAF

Flygplatser :

Wien-Schwechats internationella flygplats

Wien, Österrike

latitud: 48-07N, longitud: 016-34E, höjd: 183 m

Aktuellt väderrapport

Denna rapport gjordes för 35 minuter sedan, klockan 09:20 UTC
Vind 4 kt varierande vindriktning
Temperatur 28°C
Fuktighet 45%
Tryck 1021 hPa
Sikt 10 km eller mer
Inga moln under 1 500 m eller inga cumulonimbus

METAR: LOWW 190920Z VRB04KT CAVOK 28/15 Q1021 NOSIG

Tid: 11:55 (09:55 UTC)

Väderprognos

Denna rapport gjordes för 1 timme och 40 minuter sedan, klockan 08:15 UTC
Prognos gäller från 19 kl. 09 UTC till 20 kl. 15 UTC
Vind 2 kt varierande vindriktning
Sikt 10 km eller mer
Inga moln under 1 500 m eller inga cumulonimbus
Temporärt
från 20 kl. 13 UTC till 20 kl. 15 UTC
Vind 7 kt från sydväst

TAF: LOWW 190815Z 1909/2015 VRB02KT CAVOK TX34/2014Z TN17/2003Z TEMPO 2013/2015 22007KT

Aktuella väderrapporter och prognoser från 4000 flygplatser (METAR- och TAF-rapporter).

De tillgängliga stationerna syns som gula och röda prickar på kartan.

För musen över prickarna för att se namnen på stationerna.

Klicka sedan för att få väderrapporter och prognoser.

För att ändra kartan: Klicka på de gröna knapparna med ett svart kors på för att zooma in; den gröna knappen med ett streck på för att zooma ut; eller på de gröna pilarna för angränsande kartor.


METAR-TAF: